Time;durP1;ratioP1;P1;durP2;ratioP2;P2;SDS_P1;SDS_P2;PMS_P1;PMS_P2;Temp;Humidity;BMP_temperature;BMP_pressure;BME280_temperature;BME280_humidity;BME280_pressure;Samples;Min_cycle;Max_cycle;Signal;HPM_P1;HPM_P2
2021/05/12 00:01:18;;;;;;;;;;;25.00;64.70;;;;;;5105713;28;19911;-56
2021/05/12 00:03:44;;;;;;;;;;;24.90;64.70;;;;;;5105505;28;19904;-54
2021/05/12 00:06:10;;;;;;;;;;;24.90;64.70;;;;;;5105120;28;19939;-56
2021/05/12 00:08:36;;;;;;;;;;;24.90;64.70;;;;;;5105634;28;19904;-54
2021/05/12 00:11:02;;;;;;;;;;;24.90;64.70;;;;;;5085781;28;19946;-54
2021/05/12 00:13:28;;;;;;;;;;;24.90;64.70;;;;;;5105183;28;19962;-54
2021/05/12 00:15:54;;;;;;;;;;;24.90;64.70;;;;;;5105595;28;19949;-56
2021/05/12 00:18:22;;;;;;;;;;;24.90;64.70;;;;;;5105000;28;19915;-52
2021/05/12 00:20:48;;;;;;;;;;;24.90;64.70;;;;;;5105198;28;19957;-55
2021/05/12 00:23:21;;;;;;;;;;;24.80;64.70;;;;;;5086278;28;19947;-56
2021/05/12 00:25:47;;;;;;;;;;;24.80;64.70;;;;;;5105113;28;19916;-56
2021/05/12 00:28:12;;;;;;;;;;;24.90;64.80;;;;;;5104469;28;19908;-53
2021/05/12 00:30:38;;;;;;;;;;;24.80;64.70;;;;;;5086861;28;19904;-53
2021/05/12 00:33:04;;;;;;;;;;;24.80;64.70;;;;;;5105403;28;19958;-56
2021/05/12 00:35:30;;;;;;;;;;;24.80;64.80;;;;;;5104615;28;19914;-55
2021/05/12 00:37:56;;;;;;;;;;;24.80;64.80;;;;;;5104798;28;19929;-54
2021/05/12 00:40:22;;;;;;;;;;;24.80;64.80;;;;;;5105252;28;20015;-53
2021/05/12 00:42:48;;;;;;;;;;;24.80;64.90;;;;;;5104493;28;19908;-53
2021/05/12 00:45:15;;;;;;;;;;;24.80;64.90;;;;;;5104652;28;19912;-54
2021/05/12 00:47:41;;;;;;;;;;;24.80;64.80;;;;;;5104582;28;19915;-53
2021/05/12 00:50:07;;;;;;;;;;;24.70;64.80;;;;;;5104854;28;19904;-55
2021/05/12 00:52:33;;;;;;;;;;;24.70;64.80;;;;;;5104543;28;19939;-54
2021/05/12 00:54:59;;;;;;;;;;;24.70;64.70;;;;;;5104656;28;19908;-56
2021/05/12 00:57:25;;;;;;;;;;;24.70;64.70;;;;;;5104758;28;19937;-56
2021/05/12 00:59:52;;;;;;;;;;;24.70;64.70;;;;;;5104683;28;19911;-55
2021/05/12 01:02:18;;;;;;;;;;;24.70;64.70;;;;;;5104754;28;19912;-55
2021/05/12 01:04:44;;;;;;;;;;;24.70;64.70;;;;;;5104864;28;19965;-53
2021/05/12 01:07:10;;;;;;;;;;;24.70;64.60;;;;;;5104714;28;20083;-52
2021/05/12 01:09:36;;;;;;;;;;;24.70;64.60;;;;;;5104407;28;19911;-54
2021/05/12 01:12:03;;;;;;;;;;;24.60;64.60;;;;;;5103370;28;19916;-54
2021/05/12 01:14:29;;;;;;;;;;;24.60;64.60;;;;;;5104374;28;19926;-55
2021/05/12 01:16:55;;;;;;;;;;;24.70;64.60;;;;;;5104121;28;19911;-56
2021/05/12 01:19:21;;;;;;;;;;;24.60;64.70;;;;;;5102521;28;19930;-52
2021/05/12 01:21:47;;;;;;;;;;;24.60;64.60;;;;;;5103978;28;19907;-55
2021/05/12 01:24:13;;;;;;;;;;;24.60;64.60;;;;;;5104452;28;20006;-56
2021/05/12 01:26:39;;;;;;;;;;;24.60;64.60;;;;;;5104318;28;19912;-54
2021/05/12 01:29:05;;;;;;;;;;;24.60;64.60;;;;;;5104217;28;19908;-54
2021/05/12 01:31:41;;;;;;;;;;;24.60;64.50;;;;;;5103526;28;19947;-53
2021/05/12 01:34:08;;;;;;;;;;;24.60;64.60;;;;;;5104112;28;19904;-54
2021/05/12 01:36:34;;;;;;;;;;;24.60;64.60;;;;;;5085177;28;19911;-54
2021/05/12 01:39:00;;;;;;;;;;;24.50;64.70;;;;;;5103179;28;19904;-55
2021/05/12 01:41:26;;;;;;;;;;;24.50;64.80;;;;;;5102347;28;20359;-55
2021/05/12 01:43:52;;;;;;;;;;;24.60;65.20;;;;;;5103506;28;19910;-56
2021/05/12 01:46:18;;;;;;;;;;;24.50;65.50;;;;;;5103898;28;19916;-53
2021/05/12 01:48:44;;;;;;;;;;;24.50;64.80;;;;;;5104126;28;19911;-55
2021/05/12 01:51:10;;;;;;;;;;;24.50;64.80;;;;;;5103374;28;20443;-53
2021/05/12 01:53:36;;;;;;;;;;;24.50;64.90;;;;;;5103348;28;19908;-55
2021/05/12 01:56:02;;;;;;;;;;;24.50;64.90;;;;;;5103615;28;19904;-54
2021/05/12 01:58:28;;;;;;;;;;;24.40;64.80;;;;;;5103809;28;20085;-54
2021/05/12 02:00:55;;;;;;;;;;;24.40;64.70;;;;;;5103646;28;19904;-55
2021/05/12 02:03:20;;;;;;;;;;;24.40;64.60;;;;;;5114455;28;19912;-53
2021/05/12 02:05:47;;;;;;;;;;;24.40;64.70;;;;;;5103168;28;19947;-54
2021/05/12 02:08:13;;;;;;;;;;;24.40;64.50;;;;;;5103013;28;20295;-54
2021/05/12 02:10:40;;;;;;;;;;;24.40;64.40;;;;;;5103732;28;19938;-53
2021/05/12 02:13:06;;;;;;;;;;;24.40;64.30;;;;;;5101272;28;19916;-53
2021/05/12 02:15:32;;;;;;;;;;;24.40;64.30;;;;;;5103114;28;19976;-54
2021/05/12 02:17:58;;;;;;;;;;;24.40;64.40;;;;;;5102941;28;19912;-55
2021/05/12 02:20:26;;;;;;;;;;;24.30;64.20;;;;;;5102970;28;19935;-55
2021/05/12 02:22:52;;;;;;;;;;;24.30;64.10;;;;;;5102496;28;19904;-54
2021/05/12 02:25:18;;;;;;;;;;;24.30;64.20;;;;;;5103221;28;20369;-54
2021/05/12 02:27:44;;;;;;;;;;;24.30;64.00;;;;;;5103084;28;19908;-51
2021/05/12 02:30:10;;;;;;;;;;;24.30;64.00;;;;;;5103366;28;19926;-53
2021/05/12 02:32:36;;;;;;;;;;;24.30;64.20;;;;;;5103144;28;19912;-55
2021/05/12 02:35:03;;;;;;;;;;;24.30;64.10;;;;;;5102829;28;19908;-54
2021/05/12 02:37:29;;;;;;;;;;;24.30;64.20;;;;;;5102456;28;19951;-53
2021/05/12 02:39:55;;;;;;;;;;;24.30;64.50;;;;;;5102975;28;19908;-53
2021/05/12 02:42:21;;;;;;;;;;;24.20;64.50;;;;;;5100888;28;19915;-54
2021/05/12 02:44:47;;;;;;;;;;;24.20;64.40;;;;;;5102837;28;19912;-55
2021/05/12 02:47:12;;;;;;;;;;;24.20;64.60;;;;;;5102883;28;19952;-54
2021/05/12 02:49:39;;;;;;;;;;;24.20;64.40;;;;;;5080264;28;19908;-55
2021/05/12 02:52:05;;;;;;;;;;;24.20;64.60;;;;;;5102371;28;20363;-53
2021/05/12 02:54:31;;;;;;;;;;;24.20;65.40;;;;;;5102768;28;19914;-54
2021/05/12 02:56:57;;;;;;;;;;;24.10;64.70;;;;;;5102362;28;19908;-54
2021/05/12 02:59:23;;;;;;;;;;;24.10;64.40;;;;;;5102711;28;19908;-54
2021/05/12 03:01:49;;;;;;;;;;;24.10;64.30;;;;;;5102557;28;19910;-54
2021/05/12 03:04:15;;;;;;;;;;;24.10;64.10;;;;;;5102387;28;19926;-54
2021/05/12 03:06:40;;;;;;;;;;;24.10;63.90;;;;;;5102529;28;19920;-53
2021/05/12 03:09:06;;;;;;;;;;;24.10;64.00;;;;;;5102269;28;19927;-55
2021/05/12 03:11:32;;;;;;;;;;;24.10;64.00;;;;;;5101357;28;19915;-55
2021/05/12 03:13:58;;;;;;;;;;;24.10;63.90;;;;;;5102363;28;19931;-53
2021/05/12 03:16:24;;;;;;;;;;;24.00;64.60;;;;;;5102766;28;19904;-54
2021/05/12 03:18:50;;;;;;;;;;;24.00;63.90;;;;;;5102327;28;19908;-55
2021/05/12 03:21:16;;;;;;;;;;;24.10;63.80;;;;;;5101971;28;20582;-54
2021/05/12 03:23:42;;;;;;;;;;;24.00;63.90;;;;;;5101202;28;19908;-53
2021/05/12 03:26:08;;;;;;;;;;;24.00;63.80;;;;;;5102590;28;19927;-56
2021/05/12 03:28:34;;;;;;;;;;;24.00;63.80;;;;;;5102281;28;19908;-54
2021/05/12 03:31:00;;;;;;;;;;;24.00;63.70;;;;;;5102158;28;19904;-54
2021/05/12 03:33:26;;;;;;;;;;;24.00;63.80;;;;;;5102142;28;19931;-55
2021/05/12 03:35:51;;;;;;;;;;;24.00;63.70;;;;;;5102539;28;19911;-55
2021/05/12 03:38:17;;;;;;;;;;;23.90;63.80;;;;;;5102116;28;19911;-53
2021/05/12 03:40:43;;;;;;;;;;;24.00;64.00;;;;;;5102522;28;19908;-55
2021/05/12 03:43:10;;;;;;;;;;;23.90;63.90;;;;;;5102251;28;19911;-54
2021/05/12 03:45:36;;;;;;;;;;;23.90;64.00;;;;;;5102228;28;19938;-52
2021/05/12 03:48:01;;;;;;;;;;;23.90;64.10;;;;;;5101641;28;19908;-52
2021/05/12 03:50:28;;;;;;;;;;;23.90;64.10;;;;;;5098533;28;19904;-55
2021/05/12 03:52:54;;;;;;;;;;;23.90;64.00;;;;;;5101985;28;19919;-52
2021/05/12 03:55:20;;;;;;;;;;;23.90;64.10;;;;;;5101991;28;19971;-54
2021/05/12 03:57:46;;;;;;;;;;;23.90;64.20;;;;;;5101828;28;19908;-54
2021/05/12 04:00:12;;;;;;;;;;;23.80;63.90;;;;;;5101989;28;19958;-55
2021/05/12 04:02:39;;;;;;;;;;;23.80;63.80;;;;;;5101865;28;19919;-53
2021/05/12 04:05:06;;;;;;;;;;;23.80;63.80;;;;;;5104991;28;19919;-54
2021/05/12 04:07:31;;;;;;;;;;;23.80;63.80;;;;;;5105543;28;19999;-54
2021/05/12 04:09:57;;;;;;;;;;;23.80;63.80;;;;;;5105452;28;19904;-53
2021/05/12 04:12:23;;;;;;;;;;;23.70;63.70;;;;;;5103519;28;19931;-55
2021/05/12 04:14:50;;;;;;;;;;;23.70;63.70;;;;;;5105902;28;19923;-52
2021/05/12 04:17:16;;;;;;;;;;;23.70;63.60;;;;;;5105189;28;19908;-54
2021/05/12 04:19:42;;;;;;;;;;;23.70;63.60;;;;;;5104964;28;20300;-53
2021/05/12 04:22:08;;;;;;;;;;;23.70;63.60;;;;;;5104718;28;19974;-54
2021/05/12 04:24:34;;;;;;;;;;;23.70;63.70;;;;;;5105257;28;20319;-55
2021/05/12 04:27:00;;;;;;;;;;;23.70;63.70;;;;;;5105179;28;19908;-52
2021/05/12 04:29:25;;;;;;;;;;;23.70;63.70;;;;;;5104555;28;19908;-54
2021/05/12 04:31:51;;;;;;;;;;;23.70;63.60;;;;;;5104451;28;20331;-52
2021/05/12 04:34:17;;;;;;;;;;;23.60;63.60;;;;;;5104988;28;19908;-53
2021/05/12 04:36:43;;;;;;;;;;;23.70;63.70;;;;;;5105612;28;19931;-54
2021/05/12 04:39:09;;;;;;;;;;;23.70;63.60;;;;;;5104849;28;19939;-54
2021/05/12 04:41:35;;;;;;;;;;;23.60;63.70;;;;;;5104157;28;19908;-54
2021/05/12 04:44:01;;;;;;;;;;;23.60;63.70;;;;;;5104901;28;19908;-52
2021/05/12 04:46:27;;;;;;;;;;;23.60;63.80;;;;;;5105041;28;20296;-53
2021/05/12 04:48:53;;;;;;;;;;;23.60;63.80;;;;;;5104909;28;19995;-55
2021/05/12 04:51:19;;;;;;;;;;;23.60;63.80;;;;;;5112225;28;19915;-54
2021/05/12 04:53:46;;;;;;;;;;;23.60;63.80;;;;;;5117403;28;19915;-54
2021/05/12 04:56:12;;;;;;;;;;;23.50;63.80;;;;;;5086804;28;19983;-55
2021/05/12 04:58:38;;;;;;;;;;;23.50;63.80;;;;;;5104567;28;20143;-56
2021/05/12 05:01:04;;;;;;;;;;;23.50;63.60;;;;;;5104992;28;19935;-55
2021/05/12 05:03:30;;;;;;;;;;;23.50;63.80;;;;;;5104512;28;20381;-54
2021/05/12 05:05:57;;;;;;;;;;;23.50;63.80;;;;;;5104345;28;19939;-53
2021/05/12 05:08:24;;;;;;;;;;;23.50;63.80;;;;;;5104476;28;19958;-55
2021/05/12 05:10:50;;;;;;;;;;;23.50;63.70;;;;;;5113096;28;19971;-53
2021/05/12 05:13:16;;;;;;;;;;;23.50;63.70;;;;;;5103317;28;19946;-51
2021/05/12 05:15:42;;;;;;;;;;;23.50;63.70;;;;;;5103275;28;19904;-52
2021/05/12 05:18:08;;;;;;;;;;;23.50;63.80;;;;;;5104355;28;19912;-53
2021/05/12 05:20:34;;;;;;;;;;;23.50;63.70;;;;;;5085085;28;19908;-54
2021/05/12 05:23:00;;;;;;;;;;;23.40;63.60;;;;;;5101215;28;20404;-52
2021/05/12 05:25:26;;;;;;;;;;;23.40;63.70;;;;;;5104352;28;19966;-54
2021/05/12 06:10:37;;;;;;;;;;;23.20;63.80;;;;;;5102089;28;19911;-52
2021/05/12 06:13:03;;;;;;;;;;;23.20;63.80;;;;;;5100262;28;19920;-54
2021/05/12 06:15:29;;;;;;;;;;;23.20;63.80;;;;;;5103459;28;19977;-55
2021/05/12 06:17:55;;;;;;;;;;;23.20;63.80;;;;;;5103037;28;20358;-53
2021/05/12 06:20:21;;;;;;;;;;;23.20;63.80;;;;;;5102021;28;19908;-53
2021/05/12 06:22:47;;;;;;;;;;;23.20;63.80;;;;;;5102443;28;20010;-53
2021/05/12 06:25:13;;;;;;;;;;;23.20;63.80;;;;;;5098751;28;19915;-54
2021/05/12 06:27:42;;;;;;;;;;;23.20;63.80;;;;;;5102579;28;19931;-55
2021/05/12 06:30:08;;;;;;;;;;;23.20;63.80;;;;;;5101863;28;19915;-55
2021/05/12 06:32:34;;;;;;;;;;;23.20;63.80;;;;;;5102321;28;19904;-56
2021/05/12 06:35:00;;;;;;;;;;;23.20;63.80;;;;;;5102435;28;19910;-54
2021/05/12 06:37:28;;;;;;;;;;;23.20;63.80;;;;;;5102625;28;19916;-53
2021/05/12 06:39:54;;;;;;;;;;;23.20;63.80;;;;;;5101901;28;19904;-53
2021/05/12 06:42:20;;;;;;;;;;;23.10;63.80;;;;;;5104736;28;19908;-53
2021/05/12 06:44:46;;;;;;;;;;;23.10;63.90;;;;;;5100694;28;19957;-54
2021/05/12 06:47:12;;;;;;;;;;;23.10;63.80;;;;;;5102402;28;19915;-55
2021/05/12 06:49:38;;;;;;;;;;;23.10;63.90;;;;;;5102203;28;19916;-53
2021/05/12 06:52:04;;;;;;;;;;;23.10;63.90;;;;;;5102143;28;19912;-54
2021/05/12 06:54:30;;;;;;;;;;;23.10;64.00;;;;;;5102232;28;19922;-55
2021/05/12 06:56:56;;;;;;;;;;;23.10;64.00;;;;;;5102432;28;19912;-56
2021/05/12 06:59:22;;;;;;;;;;;23.00;64.00;;;;;;5101782;28;19965;-55
2021/05/12 07:01:48;;;;;;;;;;;23.00;64.00;;;;;;5102140;28;19936;-55
2021/05/12 07:04:13;;;;;;;;;;;23.00;64.70;;;;;;5102251;28;19908;-54
2021/05/12 07:06:39;;;;;;;;;;;23.00;63.90;;;;;;5102356;28;19919;-55
2021/05/12 07:09:05;;;;;;;;;;;23.00;63.90;;;;;;5101905;28;19958;-54
2021/05/12 07:11:31;;;;;;;;;;;23.00;63.90;;;;;;5101015;28;19908;-53
2021/05/12 07:13:57;;;;;;;;;;;23.00;64.00;;;;;;5101753;28;19919;-56
2021/05/12 07:16:23;;;;;;;;;;;23.00;63.90;;;;;;5101821;28;19927;-56
2021/05/12 07:18:49;;;;;;;;;;;23.00;63.90;;;;;;5102055;28;19908;-56
2021/05/12 07:21:15;;;;;;;;;;;23.00;64.00;;;;;;5101018;28;19929;-55
2021/05/12 07:23:43;;;;;;;;;;;23.00;64.00;;;;;;5099973;28;19919;-54
2021/05/12 07:26:10;;;;;;;;;;;23.00;64.00;;;;;;5101929;28;19919;-54
2021/05/12 07:28:36;;;;;;;;;;;23.00;64.00;;;;;;5102273;28;20422;-55
2021/05/12 07:31:02;;;;;;;;;;;23.00;64.00;;;;;;5101694;28;19908;-55
2021/05/12 07:33:28;;;;;;;;;;;23.00;64.00;;;;;;5083354;28;19912;-55
2021/05/12 07:35:54;;;;;;;;;;;23.00;64.00;;;;;;5101555;28;20007;-55
2021/05/12 07:38:20;;;;;;;;;;;22.90;64.00;;;;;;5102112;28;19904;-54
2021/05/12 07:40:46;;;;;;;;;;;22.90;64.00;;;;;;5105835;28;19908;-56
2021/05/12 07:43:12;;;;;;;;;;;22.90;64.10;;;;;;5106614;28;20353;-54
2021/05/12 07:45:39;;;;;;;;;;;22.90;64.10;;;;;;5105724;28;19924;-54
2021/05/12 07:48:05;;;;;;;;;;;22.90;64.20;;;;;;5105768;28;19926;-56
2021/05/12 07:50:31;;;;;;;;;;;22.90;64.10;;;;;;5105908;28;19908;-55
2021/05/12 07:52:58;;;;;;;;;;;22.80;64.10;;;;;;5105382;28;19908;-55
2021/05/12 07:55:24;;;;;;;;;;;22.80;64.10;;;;;;5105660;28;19915;-57
2021/05/12 07:57:49;;;;;;;;;;;22.80;64.20;;;;;;5105260;28;19908;-56
2021/05/12 08:00:16;;;;;;;;;;;22.80;64.20;;;;;;5105960;28;19916;-57
2021/05/12 08:02:41;;;;;;;;;;;22.80;64.20;;;;;;5100747;28;19959;-57
2021/05/12 08:05:08;;;;;;;;;;;22.80;64.20;;;;;;5105567;28;19920;-56
2021/05/12 08:07:34;;;;;;;;;;;22.80;64.20;;;;;;5104773;28;19972;-55
2021/05/12 08:10:00;;;;;;;;;;;22.80;64.20;;;;;;5104629;28;19907;-57
2021/05/12 08:12:26;;;;;;;;;;;22.80;64.20;;;;;;5106531;28;19908;-55
2021/05/12 08:14:51;;;;;;;;;;;22.80;64.10;;;;;;5084947;28;19912;-54
2021/05/12 08:17:17;;;;;;;;;;;22.80;64.10;;;;;;5084686;28;19908;-56
2021/05/12 08:19:43;;;;;;;;;;;22.80;64.20;;;;;;5084794;28;20288;-56
2021/05/12 08:22:09;;;;;;;;;;;22.70;64.10;;;;;;5084905;28;19904;-52
2021/05/12 08:24:35;;;;;;;;;;;22.70;64.10;;;;;;5084731;28;19975;-55
2021/05/12 08:27:02;;;;;;;;;;;22.70;64.10;;;;;;5084677;28;19912;-55
2021/05/12 08:29:29;;;;;;;;;;;22.70;64.20;;;;;;5084897;28;19985;-56
2021/05/12 08:31:55;;;;;;;;;;;22.70;64.10;;;;;;5084121;28;19904;-55
2021/05/12 08:34:21;;;;;;;;;;;22.70;64.20;;;;;;5063033;28;20007;-53
2021/05/12 08:36:47;;;;;;;;;;;22.70;64.20;;;;;;5084662;28;20577;-56
2021/05/12 08:39:13;;;;;;;;;;;22.70;64.20;;;;;;5066316;28;19938;-57
2021/05/12 08:41:40;;;;;;;;;;;22.70;64.20;;;;;;5084677;28;19912;-54
2021/05/12 08:44:06;;;;;;;;;;;22.70;64.30;;;;;;5084781;28;19904;-57
2021/05/12 08:46:32;;;;;;;;;;;22.70;64.30;;;;;;5084612;28;20459;-54
2021/05/12 08:48:58;;;;;;;;;;;22.70;64.30;;;;;;5066212;28;19912;-55
2021/05/12 08:51:26;;;;;;;;;;;22.60;64.30;;;;;;5066379;28;19908;-54
2021/05/12 08:53:55;;;;;;;;;;;22.60;64.30;;;;;;5084445;28;19948;-55
2021/05/12 08:56:21;;;;;;;;;;;22.60;64.30;;;;;;5084662;28;19908;-54
2021/05/12 08:58:47;;;;;;;;;;;22.60;64.30;;;;;;5084059;28;19904;-55
2021/05/12 09:01:14;;;;;;;;;;;22.60;64.40;;;;;;5084085;28;19943;-57
2021/05/12 09:03:39;;;;;;;;;;;22.60;64.40;;;;;;5066248;28;19905;-55
2021/05/12 09:06:06;;;;;;;;;;;22.60;64.40;;;;;;5084502;28;19927;-54
2021/05/12 09:08:31;;;;;;;;;;;22.60;64.40;;;;;;5084056;28;19910;-55
2021/05/12 09:10:57;;;;;;;;;;;22.60;64.40;;;;;;5084392;28;19978;-56
2021/05/12 09:13:27;;;;;;;;;;;22.60;64.30;;;;;;5092454;28;19939;-57
2021/05/12 09:15:53;;;;;;;;;;;22.60;64.40;;;;;;5104112;28;19911;-56
2021/05/12 09:18:27;;;;;;;;;;;22.50;64.40;;;;;;5103907;28;19971;-56
2021/05/12 09:20:53;;;;;;;;;;;22.50;64.40;;;;;;5104421;28;19904;-56
2021/05/12 09:23:19;;;;;;;;;;;22.50;64.40;;;;;;5103456;28;19912;-55
2021/05/12 09:25:55;;;;;;;;;;;22.50;64.40;;;;;;5085949;28;19964;-56
2021/05/12 09:28:21;;;;;;;;;;;22.50;64.40;;;;;;5103847;28;19915;-57
2021/05/12 09:30:48;;;;;;;;;;;22.50;64.40;;;;;;5104163;28;19904;-56
2021/05/12 09:33:24;;;;;;;;;;;22.50;64.40;;;;;;5103846;28;19908;-56
2021/05/12 09:35:49;;;;;;;;;;;22.50;64.40;;;;;;5103917;28;19987;-57
2021/05/12 09:38:19;;;;;;;;;;;22.50;64.40;;;;;;5103399;28;19954;-54
2021/05/12 09:40:46;;;;;;;;;;;22.50;64.50;;;;;;5104252;28;19932;-57
2021/05/12 09:43:14;;;;;;;;;;;22.50;64.60;;;;;;5081723;28;19908;-57
2021/05/12 09:45:40;;;;;;;;;;;22.40;64.50;;;;;;5103364;28;19916;-59
2021/05/12 09:48:06;;;;;;;;;;;22.40;64.50;;;;;;5103764;28;19904;-59
2021/05/12 09:50:39;;;;;;;;;;;22.40;64.50;;;;;;5103529;28;19908;-60
2021/05/12 09:53:08;;;;;;;;;;;22.40;64.60;;;;;;5103354;28;19904;-60
2021/05/12 09:55:34;;;;;;;;;;;22.40;64.60;;;;;;5103543;28;20337;-61
2021/05/12 09:58:01;;;;;;;;;;;22.40;64.60;;;;;;5103601;28;20426;-61
2021/05/12 10:00:31;;;;;;;;;;;22.40;64.60;;;;;;5085350;28;19912;-60
2021/05/12 10:02:57;;;;;;;;;;;22.40;64.60;;;;;;5102448;28;19915;-63
2021/05/12 10:05:23;;;;;;;;;;;22.40;64.60;;;;;;5103630;28;19912;-64
2021/05/12 10:07:51;;;;;;;;;;;22.40;64.80;;;;;;5103800;28;19915;-63
2021/05/12 10:10:37;;;;;;;;;;;22.40;64.70;;;;;;5103475;28;19904;-63
2021/05/12 10:13:03;;;;;;;;;;;22.30;64.60;;;;;;5100053;28;19916;-63
2021/05/12 10:15:28;;;;;;;;;;;22.30;64.50;;;;;;5102597;28;20458;-63
2021/05/12 10:17:54;;;;;;;;;;;22.30;64.70;;;;;;5103170;28;19900;-65
2021/05/12 10:20:20;;;;;;;;;;;22.30;64.60;;;;;;5103212;28;19908;-66
2021/05/12 10:22:46;;;;;;;;;;;22.30;64.70;;;;;;5103011;28;19943;-63
2021/05/12 10:25:12;;;;;;;;;;;22.30;64.60;;;;;;5084680;28;19957;-64
2021/05/12 10:27:38;;;;;;;;;;;22.30;64.70;;;;;;5102929;28;19916;-66
2021/05/12 10:30:05;;;;;;;;;;;22.30;64.50;;;;;;5084502;28;19910;-66
2021/05/12 10:32:34;;;;;;;;;;;22.30;64.60;;;;;;5084608;28;19929;-65
2021/05/12 10:35:06;;;;;;;;;;;22.30;64.70;;;;;;5099232;28;19907;-64
2021/05/12 10:37:32;;;;;;;;;;;22.20;64.60;;;;;;5099686;28;19904;-64
2021/05/12 10:40:01;;;;;;;;;;;22.20;64.60;;;;;;5098734;28;19958;-62
2021/05/12 10:45:34;;;;;;;;;;;22.20;64.60;;;;;;5011472;28;19920;-60
2021/05/12 10:48:01;;;;;;;;;;;22.20;64.80;;;;;;5012041;28;19961;-62
2021/05/12 10:50:49;;;;;;;;;;;22.20;64.70;;;;;;5012167;28;19913;-62
2021/05/12 10:53:21;;;;;;;;;;;22.20;64.80;;;;;;5009218;28;19914;-61
2021/05/12 10:55:55;;;;;;;;;;;22.20;64.70;;;;;;5010838;28;19906;-62
2021/05/12 10:58:22;;;;;;;;;;;22.20;64.70;;;;;;5008588;28;19936;-62
2021/05/12 11:00:54;;;;;;;;;;;22.20;64.80;;;;;;5011267;28;19964;-61
2021/05/12 11:03:20;;;;;;;;;;;22.20;64.90;;;;;;5009550;28;19916;-62
2021/05/12 11:05:52;;;;;;;;;;;22.10;64.80;;;;;;4995215;28;19914;-62
2021/05/12 11:08:18;;;;;;;;;;;22.10;64.70;;;;;;5011167;28;20004;-62
2021/05/12 11:10:50;;;;;;;;;;;22.10;64.90;;;;;;5010804;28;19917;-62
2021/05/12 11:13:19;;;;;;;;;;;22.10;64.80;;;;;;5009116;28;19964;-63
2021/05/12 11:15:56;;;;;;;;;;;22.20;64.90;;;;;;5015588;28;19915;-62
2021/05/12 11:18:51;;;;;;;;;;;22.10;64.80;;;;;;5019840;28;19913;-63
2021/05/12 11:21:23;;;;;;;;;;;22.10;64.80;;;;;;5090074;28;19915;-62
2021/05/12 11:24:02;;;;;;;;;;;22.10;64.70;;;;;;5106529;28;20010;-62
2021/05/12 11:26:47;;;;;;;;;;;22.10;64.80;;;;;;5106141;28;19919;-62
2021/05/12 11:32:01;;;;;;;;;;;22.10;64.90;;;;;;5104948;28;19963;-63
2021/05/12 11:34:28;;;;;;;;;;;22.10;64.80;;;;;;5106675;28;19918;-63
2021/05/12 11:37:25;;;;;;;;;;;22.10;64.90;;;;;;5106328;28;19919;-64
2021/05/12 11:39:52;;;;;;;;;;;22.10;64.90;;;;;;5092948;28;19918;-63
2021/05/12 11:42:22;;;;;;;;;;;22.00;64.80;;;;;;5106222;28;19919;-63
2021/05/12 11:44:49;;;;;;;;;;;22.10;65.00;;;;;;5102323;28;20415;-64
2021/05/12 11:47:30;;;;;;;;;;;22.00;64.90;;;;;;5105869;28;19933;-64
2021/05/12 11:49:56;;;;;;;;;;;22.00;64.90;;;;;;5102914;28;19908;-62
2021/05/12 11:52:28;;;;;;;;;;;22.00;65.00;;;;;;5105645;28;19962;-63
2021/05/12 11:54:54;;;;;;;;;;;22.00;65.00;;;;;;5102806;28;20025;-62
2021/05/12 11:57:20;;;;;;;;;;;22.00;64.90;;;;;;5105891;28;19941;-63
2021/05/12 11:59:46;;;;;;;;;;;22.00;65.00;;;;;;5105476;28;19944;-64
2021/05/12 12:02:13;;;;;;;;;;;22.00;65.10;;;;;;5105819;28;19908;-64
2021/05/12 12:04:46;;;;;;;;;;;22.00;65.00;;;;;;5106226;28;19941;-64
2021/05/12 12:07:12;;;;;;;;;;;22.00;65.10;;;;;;5105599;28;20048;-63
2021/05/12 12:09:38;;;;;;;;;;;22.00;65.00;;;;;;5105471;28;20539;-63
2021/05/12 12:12:04;;;;;;;;;;;22.00;65.00;;;;;;5105041;28;19908;-62
2021/05/12 12:14:33;;;;;;;;;;;22.00;65.10;;;;;;5093216;28;19928;-64
2021/05/12 12:16:59;;;;;;;;;;;22.00;65.10;;;;;;5093708;28;19972;-63
2021/05/12 12:19:25;;;;;;;;;;;21.90;65.00;;;;;;5100496;28;19916;-63
2021/05/12 12:21:54;;;;;;;;;;;22.00;65.20;;;;;;5090713;28;19916;-64
2021/05/12 12:24:22;;;;;;;;;;;22.00;65.10;;;;;;5098890;28;19904;-64
2021/05/12 12:26:55;;;;;;;;;;;22.00;65.10;;;;;;5099178;28;19923;-63
2021/05/12 12:29:21;;;;;;;;;;;21.90;65.00;;;;;;5089567;28;19943;-64
2021/05/12 12:31:49;;;;;;;;;;;21.90;65.00;;;;;;5093952;28;19913;-64
2021/05/12 12:34:20;;;;;;;;;;;21.90;65.10;;;;;;5095766;28;19921;-65
2021/05/12 12:36:54;;;;;;;;;;;21.90;65.10;;;;;;5090086;28;19987;-64
2021/05/12 12:39:21;;;;;;;;;;;21.90;65.20;;;;;;5090663;28;19908;-65
2021/05/12 12:41:53;;;;;;;;;;;21.90;65.20;;;;;;5095700;28;19919;-65
2021/05/12 12:44:19;;;;;;;;;;;21.90;65.20;;;;;;5085804;28;19912;-65
2021/05/12 12:46:55;;;;;;;;;;;21.90;65.20;;;;;;5089245;28;19939;-65
2021/05/12 12:49:32;;;;;;;;;;;21.90;65.30;;;;;;5092031;28;20355;-65
2021/05/12 12:51:57;;;;;;;;;;;21.90;65.30;;;;;;5094901;28;19904;-64
2021/05/12 12:54:43;;;;;;;;;;;21.90;65.30;;;;;;5072664;28;19915;-64
2021/05/12 12:57:09;;;;;;;;;;;21.90;65.30;;;;;;5092200;28;19904;-64
2021/05/12 12:59:55;;;;;;;;;;;21.90;65.30;;;;;;5093532;28;19915;-65
2021/05/12 13:02:21;;;;;;;;;;;21.90;65.40;;;;;;5089933;28;20026;-65
2021/05/12 13:04:56;;;;;;;;;;;21.80;65.30;;;;;;5101355;28;20694;-65
2021/05/12 13:07:21;;;;;;;;;;;21.80;65.30;;;;;;5074312;28;19908;-65
2021/05/12 13:09:47;;;;;;;;;;;21.80;65.30;;;;;;5091316;28;19916;-65
2021/05/12 13:12:13;;;;;;;;;;;21.80;65.40;;;;;;5089794;28;19915;-65
2021/05/12 13:14:39;;;;;;;;;;;21.80;65.30;;;;;;5070330;28;19979;-64
2021/05/12 13:17:05;;;;;;;;;;;21.80;65.40;;;;;;5089956;28;19915;-64
2021/05/12 13:19:41;;;;;;;;;;;21.80;65.30;;;;;;5095502;28;19908;-63
2021/05/12 13:22:09;;;;;;;;;;;21.80;65.30;;;;;;5089309;28;19904;-65
2021/05/12 13:24:35;;;;;;;;;;;21.80;65.30;;;;;;5076565;28;19930;-65
2021/05/12 13:27:05;;;;;;;;;;;21.80;65.30;;;;;;5091376;28;19920;-64
2021/05/12 13:29:31;;;;;;;;;;;21.80;65.40;;;;;;5098637;28;19904;-64
2021/05/12 13:31:57;;;;;;;;;;;21.80;65.40;;;;;;5090859;28;19904;-63
2021/05/12 13:34:24;;;;;;;;;;;21.80;65.30;;;;;;5099359;28;19915;-65
2021/05/12 13:36:53;;;;;;;;;;;21.80;65.40;;;;;;5083089;28;19922;-68
2021/05/12 13:39:19;;;;;;;;;;;21.80;65.40;;;;;;5094811;28;19911;-65
2021/05/12 13:41:45;;;;;;;;;;;21.80;65.40;;;;;;5074529;28;19915;-65
2021/05/12 13:44:15;;;;;;;;;;;21.80;65.60;;;;;;5098048;28;20313;-65
2021/05/12 13:46:41;;;;;;;;;;;21.80;65.60;;;;;;5089235;28;19938;-65
2021/05/12 13:49:07;;;;;;;;;;;21.70;66.20;;;;;;5083459;28;19904;-65
2021/05/12 13:51:35;;;;;;;;;;;21.70;65.60;;;;;;5092112;28;19905;-65
2021/05/12 14:04:25;;;;;;;;;;;21.70;65.60;;;;;;5087541;28;20030;-61
2021/05/12 14:06:51;;;;;;;;;;;21.70;65.60;;;;;;5093976;28;19969;-62
2021/05/12 14:09:32;;;;;;;;;;;21.70;65.60;;;;;;5093664;28;19908;-61
2021/05/12 14:12:01;;;;;;;;;;;21.70;65.60;;;;;;5091187;28;19904;-63
2021/05/12 14:19:37;;;;;;;;;;;21.70;65.60;;;;;;5119147;28;19904;-64
2021/05/12 14:22:04;;;;;;;;;;;21.70;65.60;;;;;;5108358;28;20003;-64
2021/05/12 14:24:33;;;;;;;;;;;21.70;65.50;;;;;;5111424;28;20897;-65
2021/05/12 14:27:00;;;;;;;;;;;21.70;65.60;;;;;;5131360;27;20018;-64
2021/05/12 14:29:42;;;;;;;;;;;21.70;65.50;;;;;;5132950;27;19940;-65
2021/05/12 14:32:12;;;;;;;;;;;21.70;65.60;;;;;;5129295;27;19907;-65
2021/05/12 14:34:38;;;;;;;;;;;21.70;65.60;;;;;;5132256;27;19904;-65
2021/05/12 14:37:04;;;;;;;;;;;21.60;65.60;;;;;;5134886;27;19943;-64
2021/05/12 14:39:34;;;;;;;;;;;21.60;65.60;;;;;;5138462;27;19908;-64
2021/05/12 14:42:00;;;;;;;;;;;21.70;65.90;;;;;;5133020;27;19903;-64
2021/05/12 14:44:26;;;;;;;;;;;21.70;65.80;;;;;;5133605;27;19908;-62
2021/05/12 14:46:52;;;;;;;;;;;21.70;65.80;;;;;;5135096;27;19978;-62
2021/05/12 14:49:20;;;;;;;;;;;21.70;65.90;;;;;;5134291;27;19907;-63
2021/05/12 14:51:59;;;;;;;;;;;21.60;65.90;;;;;;5132061;27;19963;-65
2021/05/12 14:54:28;;;;;;;;;;;21.70;65.90;;;;;;5132603;27;19903;-64
2021/05/12 14:56:59;;;;;;;;;;;21.60;65.90;;;;;;5138950;27;19914;-63
2021/05/12 15:07:26;;;;;;;;;;;21.70;66.00;;;;;;5129590;27;19921;-60
2021/05/12 15:09:52;;;;;;;;;;;21.60;65.90;;;;;;5128895;28;19990;-60
2021/05/12 15:12:17;;;;;;;;;;;21.70;66.00;;;;;;5133857;28;19908;-59
2021/05/12 15:14:46;;;;;;;;;;;21.60;65.80;;;;;;5134456;28;19959;-59
2021/05/12 15:17:12;;;;;;;;;;;21.70;66.00;;;;;;5139101;28;19917;-59
2021/05/12 15:19:40;;;;;;;;;;;21.60;65.90;;;;;;5129485;28;19908;-60
2021/05/12 15:22:06;;;;;;;;;;;21.60;65.90;;;;;;5131171;28;19908;-60
2021/05/12 15:24:32;;;;;;;;;;;21.60;65.90;;;;;;5132252;28;19915;-60
2021/05/12 15:26:58;;;;;;;;;;;21.60;65.90;;;;;;5134855;28;19911;-61
2021/05/12 15:29:25;;;;;;;;;;;21.60;66.70;;;;;;5136386;28;19908;-66